Time;durP1;ratioP1;P1;durP2;ratioP2;P2;SDS_P1;SDS_P2;PMS_P1;PMS_P2;Temp;Humidity;BMP_temperature;BMP_pressure;BME280_temperature;BME280_humidity;BME280_pressure;Samples;Min_cycle;Max_cycle;Signal;HPM_P1;HPM_P2
2022/01/22 00:00:25;;;;;;;34.40;5.47;;;6.70;94.30;;;;;;5032941;28;20030;-46
2022/01/22 00:02:58;;;;;;;40.45;6.18;;;6.70;94.30;;;;;;5016468;28;20025;-43
2022/01/22 00:05:32;;;;;;;29.00;6.60;;;6.70;94.30;;;;;;5032055;28;20386;-44
2022/01/22 00:08:04;;;;;;;46.70;6.25;;;6.70;94.30;;;;;;5016485;28;20199;-45
2022/01/22 00:10:32;;;;;;;34.80;5.28;;;6.70;94.20;;;;;;5016446;28;20056;-44
2022/01/22 00:15:33;;;;;;;27.80;3.95;;;6.70;94.20;;;;;;5033964;28;20029;-44
2022/01/22 00:18:03;;;;;;;26.85;3.63;;;6.60;94.20;;;;;;5032969;28;20033;-44
2022/01/22 00:20:37;;;;;;;36.15;5.18;;;6.70;94.20;;;;;;5013537;28;20130;-45
2022/01/22 00:23:05;;;;;;;28.30;5.28;;;6.70;94.20;;;;;;5013694;28;20056;-44
2022/01/22 00:25:40;;;;;;;35.03;5.43;;;6.70;94.20;;;;;;5027224;28;20092;-45
2022/01/22 00:28:09;;;;;;;26.70;3.85;;;6.70;94.20;;;;;;5032869;28;20026;-44
2022/01/22 00:30:35;;;;;;;37.05;4.63;;;6.70;94.20;;;;;;5033883;28;20374;-45
2022/01/22 00:33:08;;;;;;;33.30;4.53;;;6.70;94.20;;;;;;5033649;28;20049;-45
2022/01/22 00:35:35;;;;;;;37.00;5.07;;;6.70;94.20;;;;;;5033983;28;20025;-46
2022/01/22 00:38:02;;;;;;;27.45;4.75;;;6.80;94.20;;;;;;5048352;28;20033;-46
2022/01/22 00:40:29;;;;;;;29.00;4.72;;;6.80;94.20;;;;;;5039861;28;20029;-45
2022/01/22 00:42:55;;;;;;;23.63;4.32;;;6.70;94.20;;;;;;5033012;28;20033;-47
2022/01/22 00:45:24;;;;;;;33.20;5.38;;;6.80;94.10;;;;;;5033761;28;20056;-45
2022/01/22 00:47:50;;;;;;;24.23;4.97;;;6.80;94.20;;;;;;5033928;28;20351;-42
2022/01/22 00:50:20;;;;;;;31.08;5.35;;;6.70;94.10;;;;;;5032731;28;20528;-43
2022/01/22 00:52:47;;;;;;;34.03;6.75;;;6.70;94.10;;;;;;5033814;28;20029;-45
2022/01/22 00:55:15;;;;;;;26.52;4.80;;;6.70;94.10;;;;;;5033715;28;20033;-43
2022/01/22 00:57:42;;;;;;;29.40;4.80;;;6.80;94.10;;;;;;5033654;28;20041;-43
2022/01/22 01:00:18;;;;;;;28.42;3.88;;;6.80;94.10;;;;;;5033249;28;20035;-43
2022/01/22 01:02:46;;;;;;;34.58;4.00;;;6.70;94.10;;;;;;5030871;28;20052;-43
2022/01/22 01:05:13;;;;;;;41.10;5.35;;;6.80;94.10;;;;;;5033500;28;20427;-43
2022/01/22 01:07:41;;;;;;;22.35;3.42;;;6.80;94.10;;;;;;5033472;28;20029;-45
2022/01/22 01:10:13;;;;;;;23.92;3.83;;;6.80;94.10;;;;;;5033724;28;20398;-45
2022/01/22 01:12:41;;;;;;;29.35;5.47;;;6.80;94.00;;;;;;5032806;28;20029;-43
2022/01/22 01:17:57;;;;;;;26.52;5.57;;;6.80;94.00;;;;;;5033116;28;20394;-44
2022/01/22 01:34:14;;;;;;;30.33;5.75;;;6.70;93.90;;;;;;5032506;28;20041;-42
2022/01/22 01:36:42;;;;;;;33.33;6.15;;;6.70;93.90;;;;;;5037676;28;20060;-43
2022/01/22 01:39:14;;;;;;;29.10;5.68;;;6.70;93.90;;;;;;5046117;28;20033;-47
2022/01/22 01:41:52;;;;;;;25.60;4.75;;;6.70;93.90;;;;;;5033423;28;20060;-46
2022/01/22 01:44:20;;;;;;;27.30;3.80;;;6.70;93.90;;;;;;5031895;28;20065;-46
2022/01/22 01:46:50;;;;;;;22.85;5.18;;;6.80;94.00;;;;;;5033268;28;20104;-44
2022/01/22 01:49:17;;;;;;;28.45;5.85;;;6.80;94.00;;;;;;5031910;28;20026;-44
2022/01/22 01:51:45;;;;;;;27.15;4.80;;;6.70;94.00;;;;;;5033108;28;20032;-45
2022/01/22 01:54:44;;;;;;;24.15;4.55;;;6.70;94.00;;;;;;5032159;28;20459;-44
2022/01/22 01:59:56;;;;;;;31.60;6.10;;;6.70;94.00;;;;;;5033078;28;20033;-46
2022/01/22 02:02:25;;;;;;;24.52;6.47;;;6.70;94.00;;;;;;5032731;28;20018;-48
2022/01/22 02:04:51;;;;;;;21.38;5.45;;;6.70;94.00;;;;;;5032858;28;20030;-47
2022/01/22 02:07:18;;;;;;;18.02;3.50;;;6.60;94.00;;;;;;5033021;28;20045;-43
2022/01/22 02:09:45;;;;;;;22.63;4.55;;;6.60;94.00;;;;;;5015164;28;20496;-45
2022/01/22 02:12:32;;;;;;;24.73;3.80;;;6.60;94.00;;;;;;5030277;28;20035;-46
2022/01/22 02:23:35;;;;;;;16.30;4.13;;;6.60;94.10;;;;;;5036652;28;20094;-55
2022/01/22 02:26:04;;;;;;;17.60;5.00;;;6.60;94.10;;;;;;5036218;28;20049;-53
2022/01/22 02:28:32;;;;;;;19.58;4.35;;;6.50;94.10;;;;;;5036137;28;20044;-56
2022/01/22 02:31:09;;;;;;;22.48;3.80;;;6.50;94.10;;;;;;5036068;28;20033;-56
2022/01/22 02:36:30;;;;;;;27.17;5.47;;;6.50;94.20;;;;;;5037452;28;20507;-53
2022/01/22 02:41:52;;;;;;;29.13;5.90;;;6.40;94.20;;;;;;5016374;28;20125;-52
2022/01/22 02:44:42;;;;;;;21.33;5.40;;;6.40;94.20;;;;;;5030096;28;20057;-52
2022/01/22 02:47:08;;;;;;;23.25;4.32;;;6.40;94.20;;;;;;5017024;28;20050;-57
2022/01/22 02:49:35;;;;;;;34.90;4.63;;;6.40;94.20;;;;;;5032204;28;20021;-56
2022/01/22 02:52:07;;;;;;;21.52;4.35;;;6.40;94.20;;;;;;5036365;28;20037;-54
2022/01/22 02:54:39;;;;;;;18.85;3.85;;;6.40;94.10;;;;;;5035869;28;20056;-52
2022/01/22 02:57:08;;;;;;;29.00;3.72;;;6.40;94.10;;;;;;5035945;28;20332;-50
2022/01/22 02:59:35;;;;;;;26.90;3.95;;;6.30;94.20;;;;;;5036069;28;20033;-48
2022/01/22 03:02:06;;;;;;;16.80;4.20;;;6.30;94.10;;;;;;5035514;28;20042;-55
2022/01/22 03:04:32;;;;;;;16.38;4.45;;;6.30;94.20;;;;;;5035704;28;20053;-55
2022/01/22 03:06:59;;;;;;;17.70;3.05;;;6.30;94.20;;;;;;5035714;28;20289;-55
2022/01/22 03:09:29;;;;;;;20.83;2.25;;;6.30;94.20;;;;;;5036069;28;20098;-51
2022/01/22 03:22:54;;;;;;;28.88;4.03;;;6.30;94.10;;;;;;5035533;28;20061;-54
2022/01/22 03:28:08;;;;;;;21.58;5.53;;;6.30;94.20;;;;;;5035170;28;20080;-52
2022/01/22 03:30:34;;;;;;;18.08;2.47;;;6.30;94.20;;;;;;5034645;28;20459;-49
2022/01/22 03:33:01;;;;;;;18.90;2.72;;;6.30;94.20;;;;;;5034112;28;20351;-51
2022/01/22 03:35:33;;;;;;;18.05;2.80;;;6.30;94.20;;;;;;5035522;28;20045;-50
2022/01/22 03:38:00;;;;;;;27.10;5.32;;;6.30;94.20;;;;;;5048513;28;20083;-52
2022/01/22 03:40:31;;;;;;;22.63;3.47;;;6.30;94.20;;;;;;5040396;28;20443;-48
2022/01/22 03:43:00;;;;;;;22.95;3.67;;;6.30;94.20;;;;;;5034203;28;20029;-50
2022/01/22 03:45:27;;;;;;;17.17;2.38;;;6.30;94.20;;;;;;5035466;28;20053;-48
2022/01/22 03:47:54;;;;;;;12.98;2.55;;;6.40;94.20;;;;;;5034559;28;20446;-47
2022/01/22 03:50:22;;;;;;;23.98;3.05;;;6.40;94.20;;;;;;5034008;28;20041;-51
2022/01/22 03:52:49;;;;;;;18.38;2.75;;;6.40;94.20;;;;;;5034773;28;20029;-47
2022/01/22 03:58:03;;;;;;;14.68;2.70;;;6.30;94.10;;;;;;5023522;28;20057;-47
2022/01/22 04:00:29;;;;;;;17.08;2.15;;;6.30;94.10;;;;;;5033397;28;20034;-46
2022/01/22 04:05:25;;;;;;;;;;;6.30;94.10;;;;;;5031452;28;20083;-48
2022/01/22 04:10:25;;;;;;;12.57;2.20;;;6.30;94.00;;;;;;5034204;28;20410;-45
2022/01/22 04:13:05;;;;;;;18.60;2.55;;;6.20;94.00;;;;;;5035116;28;20044;-47
2022/01/22 04:15:37;;;;;;;16.63;2.38;;;6.30;94.00;;;;;;5031323;28;20113;-46
2022/01/22 04:29:01;;;;;;;22.05;4.43;;;6.30;93.80;;;;;;5034303;28;20025;-48
2022/01/22 04:31:28;;;;;;;18.38;3.47;;;6.30;93.80;;;;;;5033961;28;20041;-49
2022/01/22 04:33:55;;;;;;;17.90;2.88;;;6.30;93.80;;;;;;5034703;28;20033;-48
2022/01/22 04:36:25;;;;;;;14.48;2.78;;;6.30;93.70;;;;;;5035855;28;20040;-49
2022/01/22 04:38:54;;;;;;;19.85;2.90;;;6.30;93.70;;;;;;5054075;28;20035;-49
2022/01/22 04:41:21;;;;;;;17.90;2.55;;;6.30;93.70;;;;;;5047981;28;20359;-47
2022/01/22 04:43:50;;;;;;;21.60;2.80;;;6.30;93.70;;;;;;5031399;28;20060;-52
2022/01/22 04:46:23;;;;;;;24.33;3.53;;;6.30;93.70;;;;;;5034216;28;20082;-50
2022/01/22 04:57:05;;;;;;;16.42;4.82;;;6.30;93.70;;;;;;5033760;28;20430;-48
2022/01/22 04:59:32;;;;;;;15.30;4.40;;;6.40;93.70;;;;;;5046659;28;20018;-49
2022/01/22 05:01:58;;;;;;;20.35;3.60;;;6.30;93.70;;;;;;5033437;28;20025;-48
2022/01/22 05:04:26;;;;;;;21.33;2.88;;;6.30;93.70;;;;;;5032323;28;20144;-50
2022/01/22 05:06:52;;;;;;;20.60;5.03;;;6.30;93.70;;;;;;5033668;28;20361;-47
2022/01/22 05:09:19;;;;;;;14.73;3.30;;;6.30;93.70;;;;;;5032372;28;20080;-46
2022/01/22 05:11:46;;;;;;;14.95;4.20;;;6.30;93.70;;;;;;5032332;28;20034;-47
2022/01/22 05:14:15;;;;;;;20.23;4.15;;;6.30;93.60;;;;;;5032330;28;20040;-48
2022/01/22 05:16:42;;;;;;;14.57;2.28;;;6.30;93.60;;;;;;5033588;28;20029;-49
2022/01/22 05:19:17;;;;;;;17.45;2.72;;;6.30;93.60;;;;;;5033186;28;20536;-47
2022/01/22 05:21:45;;;;;;;24.45;4.15;;;6.30;93.60;;;;;;5032907;28;20084;-48
2022/01/22 05:24:17;;;;;;;17.77;3.55;;;6.30;93.60;;;;;;5032814;28;20017;-49
2022/01/22 05:37:52;;;;;;;17.50;3.03;;;6.30;93.70;;;;;;5032774;28;20028;-47
2022/01/22 05:40:19;;;;;;;12.18;2.13;;;6.30;93.70;;;;;;5032290;28;20037;-47
2022/01/22 05:42:46;;;;;;;15.13;3.63;;;6.20;93.70;;;;;;5049004;28;20021;-47
2022/01/22 05:45:12;;;;;;;17.02;2.13;;;6.30;93.80;;;;;;5032897;28;20111;-49
2022/01/22 05:47:40;;;;;;;13.02;2.78;;;6.30;93.80;;;;;;5031950;28;20071;-52
2022/01/22 05:50:13;;;;;;;16.52;2.13;;;6.20;93.70;;;;;;5032412;28;20060;-47
2022/01/22 05:52:55;;;;;;;17.73;3.97;;;6.20;93.70;;;;;;5032798;28;20025;-48
2022/01/22 05:59:35;;;;;;;17.90;6.55;;;6.20;93.80;;;;;;5034615;28;20061;-47
2022/01/22 06:01:15;;;;;;;18.52;2.42;;;6.20;93.80;;;;;;5036518;28;20032;-46
2022/01/22 06:03:44;;;;;;;11.85;2.28;;;6.20;93.80;;;;;;5033858;28;20022;-47
2022/01/22 06:06:11;;;;;;;17.08;3.00;;;6.20;93.80;;;;;;5036695;28;20014;-53
2022/01/22 06:08:51;;;;;;;14.25;2.35;;;6.20;93.90;;;;;;5036908;28;20435;-59
2022/01/22 06:11:26;;;;;;;9.63;2.60;;;6.20;93.90;;;;;;5023237;28;20025;-60
2022/01/22 06:13:53;;;;;;;16.77;2.58;;;6.30;93.90;;;;;;5036716;28;20366;-60
2022/01/22 06:16:24;;;;;;;15.85;2.55;;;6.30;93.90;;;;;;5036965;28;20418;-62
2022/01/22 06:18:51;;;;;;;15.15;2.90;;;6.30;94.00;;;;;;5036522;28;20079;-62
2022/01/22 06:21:17;;;;;;;10.45;2.38;;;6.20;94.00;;;;;;5036545;28;20087;-61
2022/01/22 06:23:47;;;;;;;8.68;2.33;;;6.30;94.00;;;;;;5036626;28;20037;-62
2022/01/22 06:26:15;;;;;;;9.13;2.25;;;6.30;94.00;;;;;;5035416;28;20026;-60
2022/01/22 06:28:42;;;;;;;11.38;2.42;;;6.20;94.00;;;;;;5035909;28;20045;-57
2022/01/22 06:31:10;;;;;;;10.63;2.10;;;6.30;94.00;;;;;;5043470;28;20032;-57
2022/01/22 06:33:36;;;;;;;9.48;2.75;;;6.30;94.10;;;;;;5035917;28;20037;-56
2022/01/22 06:36:04;;;;;;;9.50;2.42;;;6.30;94.10;;;;;;5036220;28;20021;-53
2022/01/22 06:38:32;;;;;;;12.25;3.83;;;6.30;94.10;;;;;;5037754;28;20033;-52
2022/01/22 06:43:44;;;;;;;16.35;4.32;;;6.30;94.20;;;;;;5036015;28;20057;-48
2022/01/22 06:46:13;;;;;;;16.17;4.55;;;6.40;94.20;;;;;;5036030;28;20041;-48
2022/01/22 06:48:40;;;;;;;20.05;4.43;;;6.30;94.20;;;;;;5035963;28;20482;-48
2022/01/22 06:51:09;;;;;;;12.10;3.97;;;6.30;94.20;;;;;;5035855;28;20439;-54
2022/01/22 06:53:40;;;;;;;14.07;3.03;;;6.30;94.20;;;;;;5035808;28;20048;-59
2022/01/22 06:56:09;;;;;;;14.98;2.38;;;6.30;94.10;;;;;;5035301;28;20477;-54
2022/01/22 06:58:36;;;;;;;10.77;2.42;;;6.30;94.20;;;;;;5035639;28;20024;-54
2022/01/22 07:01:02;;;;;;;15.57;2.95;;;6.30;94.10;;;;;;5035334;28;20040;-56
2022/01/22 07:03:30;;;;;;;17.10;3.47;;;6.30;94.20;;;;;;5035355;28;20037;-52
2022/01/22 07:05:57;;;;;;;8.07;1.83;;;6.30;94.20;;;;;;5033796;28;20045;-57
2022/01/22 07:08:24;;;;;;;13.38;3.78;;;6.30;94.20;;;;;;5034499;28;20041;-55
2022/01/22 07:10:51;;;;;;;12.57;3.58;;;6.30;94.20;;;;;;5035106;28;20370;-57
2022/01/22 07:13:20;;;;;;;7.88;2.85;;;6.30;94.30;;;;;;5034142;28;20033;-58
2022/01/22 07:15:46;;;;;;;6.17;2.33;;;6.30;94.20;;;;;;5034978;28;20109;-57
2022/01/22 07:18:15;;;;;;;6.00;2.33;;;6.40;94.30;;;;;;5035089;28;20025;-56
2022/01/22 07:20:43;;;;;;;13.63;2.75;;;6.40;94.30;;;;;;5035808;28;20038;-55
2022/01/22 07:25:44;;;;;;;12.15;2.03;;;6.40;94.30;;;;;;5031340;28;20045;-52
2022/01/22 07:28:12;;;;;;;15.40;2.40;;;6.40;94.30;;;;;;5034024;28;20033;-53
2022/01/22 07:30:39;;;;;;;12.52;4.63;;;6.40;94.30;;;;;;5034958;28;20059;-52
2022/01/22 07:33:06;;;;;;;10.80;3.97;;;6.40;94.30;;;;;;5034226;28;20021;-50
2022/01/22 07:35:34;;;;;;;12.18;3.72;;;6.40;94.40;;;;;;5034080;28;20118;-51
2022/01/22 07:38:01;;;;;;;12.73;4.07;;;6.40;94.30;;;;;;5036406;28;20037;-50
2022/01/22 07:40:29;;;;;;;20.55;4.60;;;6.40;94.40;;;;;;5033820;28;20087;-52
2022/01/22 07:42:57;;;;;;;12.38;3.60;;;6.40;94.40;;;;;;5034583;28;20083;-47
2022/01/22 07:45:23;;;;;;;6.82;2.75;;;6.40;94.40;;;;;;5034138;28;20064;-50
2022/01/22 07:47:50;;;;;;;10.90;3.92;;;6.40;94.40;;;;;;5034717;28;20351;-47
2022/01/22 07:50:18;;;;;;;13.82;3.15;;;6.40;94.40;;;;;;5034364;28;20112;-47
2022/01/22 07:52:45;;;;;;;7.43;2.55;;;6.40;94.40;;;;;;5034422;28;20052;-47
2022/01/22 07:55:11;;;;;;;10.13;3.08;;;6.40;94.40;;;;;;5034749;28;20053;-48
2022/01/22 07:57:38;;;;;;;6.70;2.50;;;6.40;94.40;;;;;;5032866;28;20489;-49
2022/01/22 08:00:08;;;;;;;6.32;1.38;;;6.40;94.40;;;;;;5008861;28;20026;-52
2022/01/22 08:02:35;;;;;;;4.40;1.27;;;6.40;94.40;;;;;;5034624;28;20443;-53
2022/01/22 08:05:02;;;;;;;6.85;1.63;;;6.40;94.40;;;;;;5033712;28;20113;-62
2022/01/22 08:07:31;;;;;;;6.45;1.80;;;6.40;94.40;;;;;;5033939;28;20033;-62
2022/01/22 08:09:58;;;;;;;9.13;1.15;;;6.40;94.40;;;;;;5034027;28;20587;-55
2022/01/22 08:12:26;;;;;;;6.28;1.20;;;6.40;94.40;;;;;;5049202;28;20080;-54
2022/01/22 08:14:52;;;;;;;7.38;1.65;;;6.40;94.40;;;;;;5033517;28;20451;-54
2022/01/22 08:17:19;;;;;;;10.77;1.52;;;6.40;94.40;;;;;;5033427;28;20149;-53
2022/01/22 08:19:44;;;;;;;9.30;1.95;;;6.40;94.40;;;;;;5032919;28;20099;-50
2022/01/22 08:22:11;;;;;;;7.63;1.67;;;6.40;94.40;;;;;;5033882;28;20401;-48
2022/01/22 08:24:38;;;;;;;8.13;2.33;;;6.40;94.40;;;;;;5033546;28;20116;-51
2022/01/22 08:29:35;;;;;;;;;;;6.40;94.40;;;;;;5034436;28;20390;-47
2022/01/22 08:37:19;;;;;;;18.40;2.65;;;6.40;94.30;;;;;;5032891;28;20187;-49
2022/01/22 08:39:46;;;;;;;12.80;2.85;;;6.50;94.30;;;;;;5033542;28;20455;-50
2022/01/22 08:42:15;;;;;;;12.70;2.35;;;6.50;94.30;;;;;;5033917;28;20458;-53
2022/01/22 08:44:41;;;;;;;23.70;2.63;;;6.50;94.30;;;;;;5032811;28;20051;-52
2022/01/22 08:47:09;;;;;;;16.92;2.05;;;6.50;94.30;;;;;;5032048;28;20041;-54
2022/01/22 08:49:38;;;;;;;9.55;1.50;;;6.50;94.30;;;;;;5028873;28;20436;-57
2022/01/22 08:52:11;;;;;;;8.90;1.35;;;6.50;94.20;;;;;;5033146;28;20037;-57
2022/01/22 08:54:39;;;;;;;10.38;1.88;;;6.50;94.20;;;;;;5034162;28;20064;-53
2022/01/22 08:57:06;;;;;;;8.02;1.70;;;6.50;94.20;;;;;;5033959;28;20025;-49
2022/01/22 08:59:33;;;;;;;18.70;3.40;;;6.50;94.20;;;;;;5032940;28;20057;-48
2022/01/22 09:02:01;;;;;;;12.57;4.28;;;6.50;94.20;;;;;;5033882;28;20045;-52
2022/01/22 09:04:27;;;;;;;12.88;1.80;;;6.50;94.20;;;;;;5033713;28;20017;-57
2022/01/22 09:06:54;;;;;;;15.05;2.50;;;6.50;94.10;;;;;;5033886;28;20371;-52
2022/01/22 09:09:21;;;;;;;15.27;3.75;;;6.50;94.10;;;;;;5033103;28;20029;-53
2022/01/22 09:11:48;;;;;;;10.13;1.88;;;6.60;94.10;;;;;;5033816;28;20056;-52
2022/01/22 09:14:16;;;;;;;13.57;1.52;;;6.60;94.10;;;;;;5032990;28;20033;-50
2022/01/22 09:16:46;;;;;;;11.07;1.75;;;6.50;94.10;;;;;;5033355;28;20366;-50
2022/01/22 09:19:13;;;;;;;6.22;0.85;;;6.60;94.10;;;;;;5031997;28;20444;-47
2022/01/22 09:21:44;;;;;;;9.05;1.92;;;6.60;94.00;;;;;;5032922;28;20490;-48
2022/01/22 09:24:17;;;;;;;6.63;1.70;;;6.60;94.00;;;;;;5033356;28;20056;-46
2022/01/22 09:26:45;;;;;;;13.02;2.17;;;6.60;93.90;;;;;;5033612;28;20057;-48
2022/01/22 09:29:12;;;;;;;7.03;1.55;;;6.50;93.90;;;;;;5031594;28;20507;-47
2022/01/22 09:31:38;;;;;;;12.35;1.48;;;6.60;93.90;;;;;;5037410;28;20091;-46
2022/01/22 09:34:05;;;;;;;9.85;1.70;;;6.60;93.80;;;;;;5032910;28;20091;-45
2022/01/22 09:36:33;;;;;;;12.23;1.80;;;6.70;93.70;;;;;;5033217;28;20112;-45
2022/01/22 09:39:00;;;;;;;4.15;1.38;;;6.60;93.70;;;;;;5031701;28;20037;-45
2022/01/22 09:41:28;;;;;;;10.00;1.25;;;6.70;93.70;;;;;;5033050;28;20156;-44
2022/01/22 09:43:55;;;;;;;9.05;1.40;;;6.70;93.70;;;;;;5015350;28;20107;-44
2022/01/22 09:46:24;;;;;;;6.13;1.75;;;6.90;93.70;;;;;;5032559;28;20026;-45
2022/01/22 09:48:52;;;;;;;7.07;2.17;;;6.90;93.50;;;;;;5032804;28;20104;-49
2022/01/22 09:51:19;;;;;;;5.18;1.38;;;7.00;93.50;;;;;;5033141;28;20029;-49
2022/01/22 09:53:45;;;;;;;7.30;1.23;;;6.90;93.30;;;;;;5033177;28;20025;-48
2022/01/22 09:56:17;;;;;;;10.13;1.10;;;6.90;93.20;;;;;;5032792;28;20017;-59
2022/01/22 09:58:44;;;;;;;4.10;0.60;;;6.90;93.30;;;;;;5032226;28;20184;-61
2022/01/22 10:01:34;;;;;;;1.65;0.43;;;6.90;93.20;;;;;;5033093;28;20095;-61
2022/01/22 10:04:05;;;;;;;3.45;1.08;;;6.80;93.10;;;;;;5032791;28;20120;-62
2022/01/22 10:06:34;;;;;;;4.47;0.80;;;6.80;93.20;;;;;;5032591;28;20055;-60
2022/01/22 10:09:33;;;;;;;2.03;0.73;;;6.90;93.20;;;;;;5032754;28;20041;-58
2022/01/22 10:12:20;;;;;;;4.65;0.95;;;6.90;93.30;;;;;;5032965;28;20061;-58
2022/01/22 10:15:08;;;;;;;7.25;1.25;;;6.90;93.30;;;;;;5032084;28;20034;-53
2022/01/22 10:17:55;;;;;;;6.60;1.10;;;6.90;93.20;;;;;;5032003;28;20037;-51
2022/01/22 10:20:21;;;;;;;6.00;1.20;;;6.90;93.30;;;;;;5032078;28;20029;-48
2022/01/22 10:22:49;;;;;;;8.63;1.65;;;6.90;93.20;;;;;;5032494;28;20506;-47
2022/01/22 10:25:25;;;;;;;10.27;1.45;;;6.90;93.10;;;;;;5032053;28;20030;-47
2022/01/22 10:28:14;;;;;;;9.73;1.50;;;7.00;93.10;;;;;;5032738;28;20528;-46
2022/01/22 10:30:44;;;;;;;8.85;1.33;;;6.90;92.90;;;;;;5031057;28;20094;-45
2022/01/22 10:33:31;;;;;;;61.42;29.95;;;6.90;93.00;;;;;;5032254;28;20029;-47
2022/01/22 10:36:20;;;;;;;12.35;3.58;;;7.00;93.10;;;;;;5030953;28;20056;-46
2022/01/22 10:38:52;;;;;;;10.00;1.67;;;7.00;92.90;;;;;;5030198;28;20113;-46
2022/01/22 10:41:41;;;;;;;6.32;1.25;;;7.00;92.90;;;;;;5032662;28;20085;-44
2022/01/22 10:44:15;;;;;;;5.43;1.25;;;7.20;93.00;;;;;;5045653;28;20041;-45
2022/01/22 10:49:19;;;;;;;9.90;2.05;;;7.30;92.60;;;;;;5035488;28;20021;-43
2022/01/22 10:51:56;;;;;;;6.68;1.17;;;7.40;92.60;;;;;;5036281;28;20048;-43
2022/01/22 10:54:28;;;;;;;5.28;1.77;;;7.40;92.40;;;;;;5036050;28;20116;-44
2022/01/22 10:57:10;;;;;;;2.97;0.95;;;7.40;92.40;;;;;;5035771;28;20037;-47
2022/01/22 10:59:45;;;;;;;6.00;1.30;;;7.30;92.30;;;;;;5035571;28;20033;-57
2022/01/22 11:02:12;;;;;;;5.57;1.13;;;7.30;92.40;;;;;;5035941;28;20040;-51
2022/01/22 11:04:57;;;;;;;8.70;2.33;;;7.20;92.40;;;;;;5035892;28;20099;-51
2022/01/22 11:07:26;;;;;;;5.60;1.08;;;7.20;92.40;;;;;;5035288;28;20473;-51
2022/01/22 11:09:54;;;;;;;7.32;1.30;;;7.00;92.50;;;;;;5035532;28;20057;-47
2022/01/22 11:12:21;;;;;;;9.57;1.52;;;7.00;92.50;;;;;;5035944;28;20113;-49
2022/01/22 11:14:48;;;;;;;7.57;1.13;;;7.00;92.50;;;;;;5035455;28;20096;-46
2022/01/22 11:17:15;;;;;;;8.88;2.05;;;7.10;92.60;;;;;;5035484;28;20075;-45
2022/01/22 11:19:48;;;;;;;9.55;1.67;;;7.10;92.50;;;;;;5035681;28;20036;-49
2022/01/22 11:22:19;;;;;;;8.20;1.55;;;7.30;92.70;;;;;;5035502;28;20029;-44
2022/01/22 11:24:56;;;;;;;6.53;1.38;;;7.40;92.60;;;;;;5035236;28;20033;-44
2022/01/22 11:27:23;;;;;;;27.48;3.38;;;7.40;92.40;;;;;;5035813;28;20091;-44
2022/01/22 11:30:03;;;;;;;7.90;1.33;;;7.50;92.40;;;;;;5035126;28;20037;-45
2022/01/22 11:32:52;;;;;;;8.90;1.83;;;7.50;92.20;;;;;;5035127;28;20025;-47
2022/01/22 11:35:42;;;;;;;6.30;1.10;;;7.40;92.10;;;;;;5034379;28;20872;-45
2022/01/22 11:38:18;;;;;;;10.60;1.70;;;7.50;92.20;;;;;;5034391;28;20164;-45
2022/01/22 11:41:19;;;;;;;8.60;1.17;;;7.40;92.10;;;;;;5035398;28;20036;-44
2022/01/22 11:44:14;;;;;;;6.25;1.02;;;7.40;92.20;;;;;;5021256;28;20455;-45
2022/01/22 11:46:59;;;;;;;20.80;6.93;;;7.40;92.00;;;;;;5034921;28;20034;-44
2022/01/22 11:50:17;;;;;;;52.63;19.58;;;7.30;91.90;;;;;;5025337;28;20022;-44
2022/01/22 11:52:44;;;;;;;16.23;5.17;;;7.40;92.00;;;;;;5022680;28;20056;-44
2022/01/22 11:55:18;;;;;;;20.40;4.55;;;7.20;91.70;;;;;;5034334;28;20053;-44
2022/01/22 11:57:45;;;;;;;15.70;4.72;;;7.20;91.80;;;;;;5034489;28;20061;-43
2022/01/22 12:00:29;;;;;;;8.30;3.90;;;7.10;91.70;;;;;;5034394;28;20032;-44
2022/01/22 12:03:11;;;;;;;8.70;1.95;;;7.00;91.90;;;;;;5034465;28;20021;-44
2022/01/22 12:05:52;;;;;;;7.95;1.80;;;7.10;92.00;;;;;;5032955;28;20517;-45
2022/01/22 12:08:23;;;;;;;3.60;1.20;;;7.00;92.10;;;;;;5034707;28;20061;-46
2022/01/22 12:16:40;;;;;;;6.00;1.42;;;6.90;92.40;;;;;;5032761;28;20039;-51
2022/01/22 12:19:33;;;;;;;7.32;1.30;;;6.90;92.50;;;;;;5017240;28;20044;-44
2022/01/22 12:21:59;;;;;;;7.95;1.25;;;7.00;92.30;;;;;;5013816;28;20025;-45
2022/01/22 12:24:31;;;;;;;11.77;1.80;;;7.00;92.40;;;;;;5020141;28;20037;-45
2022/01/22 12:27:01;;;;;;;7.43;0.88;;;7.00;92.20;;;;;;5032912;28;20513;-44
2022/01/22 12:29:34;;;;;;;8.35;1.15;;;6.90;92.10;;;;;;5033521;28;20418;-43
2022/01/22 12:32:10;;;;;;;4.60;0.85;;;7.00;92.10;;;;;;5034319;28;20036;-43
2022/01/22 12:34:56;;;;;;;3.72;1.00;;;7.00;92.00;;;;;;5033825;28;20021;-43
2022/01/22 12:37:26;;;;;;;3.55;0.70;;;7.00;92.00;;;;;;5033031;28;20451;-42
2022/01/22 12:39:55;;;;;;;9.35;1.40;;;7.10;92.00;;;;;;5034381;28;20034;-42
2022/01/22 12:42:47;;;;;;;2.20;0.70;;;7.20;92.00;;;;;;5033200;28;20048;-44
2022/01/22 12:45:14;;;;;;;7.25;1.13;;;7.30;92.00;;;;;;5032412;28;20128;-43
2022/01/22 12:47:47;;;;;;;7.55;1.13;;;7.40;91.90;;;;;;5033811;28;20056;-42
2022/01/22 12:50:13;;;;;;;4.78;1.10;;;7.40;91.60;;;;;;5032865;28;20088;-44
2022/01/22 12:52:46;;;;;;;8.65;1.17;;;7.40;91.40;;;;;;5033170;28;20050;-41
2022/01/22 12:55:26;;;;;;;8.10;1.40;;;7.40;91.00;;;;;;5033648;28;20037;-41
2022/01/22 12:57:53;;;;;;;6.82;1.13;;;7.40;90.50;;;;;;5033211;28;20035;-41
2022/01/22 13:00:21;;;;;;;9.55;1.88;;;7.40;90.20;;;;;;5032830;28;20029;-43
2022/01/22 13:02:55;;;;;;;5.32;0.90;;;7.40;90.00;;;;;;5033311;28;20017;-42
2022/01/22 13:05:26;;;;;;;6.93;1.30;;;7.40;90.10;;;;;;5028484;28;20033;-42
2022/01/22 13:07:58;;;;;;;5.15;1.13;;;7.40;90.20;;;;;;5033948;28;20470;-42
2022/01/22 13:10:32;;;;;;;10.25;1.95;;;7.40;89.70;;;;;;5033147;28;20107;-42
2022/01/22 13:13:01;;;;;;;6.03;1.27;;;7.40;90.00;;;;;;5032619;28;20087;-43
2022/01/22 13:15:30;;;;;;;5.05;1.30;;;7.40;90.00;;;;;;5029951;28;20039;-42
2022/01/22 13:17:58;;;;;;;10.23;1.60;;;7.40;89.90;;;;;;5027565;28;20084;-42
2022/01/22 13:20:29;;;;;;;8.55;1.35;;;7.40;90.00;;;;;;5028817;28;20136;-42
2022/01/22 13:22:58;;;;;;;5.60;1.80;;;7.40;90.00;;;;;;5032417;28;20089;-41
2022/01/22 13:25:24;;;;;;;8.27;1.77;;;7.40;90.00;;;;;;5032551;28;20038;-42
2022/01/22 13:28:09;;;;;;;6.15;1.48;;;7.40;89.90;;;;;;5048609;28;20757;-42
2022/01/22 13:30:43;;;;;;;7.15;1.42;;;7.40;89.70;;;;;;5025778;28;20455;-43
2022/01/22 13:33:25;;;;;;;10.50;2.22;;;7.30;89.40;;;;;;5045180;28;20035;-41
2022/01/22 13:36:10;;;;;;;5.22;1.40;;;7.20;89.50;;;;;;5029905;28;20124;-43
2022/01/22 13:39:10;;;;;;;9.75;1.42;;;7.30;89.70;;;;;;5032146;28;20055;-42
2022/01/22 13:49:56;;;;;;;8.82;2.20;;;7.20;89.40;;;;;;5032885;28;20114;-44
2022/01/22 13:52:28;;;;;;;7.57;2.15;;;7.20;89.60;;;;;;5030645;28;20040;-43
2022/01/22 13:54:58;;;;;;;5.55;2.08;;;7.20;89.70;;;;;;5031272;28;20073;-43
2022/01/22 13:57:30;;;;;;;6.38;1.63;;;7.20;89.60;;;;;;5011198;28;20034;-42
2022/01/22 13:59:57;;;;;;;5.63;1.83;;;7.20;89.60;;;;;;5035416;28;20035;-43
2022/01/22 14:03:09;;;;;;;5.00;1.88;;;7.10;89.20;;;;;;5032518;28;20026;-43
2022/01/22 14:05:28;;;;;;;9.35;2.80;;;7.20;89.30;;;;;;5026218;28;20095;-43
2022/01/22 14:08:06;;;;;;;8.18;1.77;;;7.10;89.20;;;;;;5029737;28;20084;-45
2022/01/22 14:10:35;;;;;;;6.95;1.17;;;7.10;89.40;;;;;;5031857;28;20049;-43
2022/01/22 14:13:10;;;;;;;5.47;1.67;;;7.10;89.10;;;;;;5031537;28;20064;-46
2022/01/22 14:15:44;;;;;;;7.65;1.90;;;7.00;89.10;;;;;;5033672;28;20386;-43
2022/01/22 14:18:23;;;;;;;7.88;1.55;;;7.00;89.20;;;;;;5019240;28;20057;-43
2022/01/22 14:21:09;;;;;;;7.47;3.37;;;6.90;89.30;;;;;;5033212;28;20025;-44
2022/01/22 14:23:37;;;;;;;15.02;4.88;;;6.90;89.30;;;;;;5036598;28;20040;-43
2022/01/22 14:26:34;;;;;;;6.63;2.40;;;7.00;89.50;;;;;;5036335;28;20083;-43
2022/01/22 14:29:07;;;;;;;7.05;2.58;;;7.00;89.50;;;;;;5031796;28;20102;-43
2022/01/22 14:31:57;;;;;;;8.27;2.78;;;7.00;89.20;;;;;;5035625;28;20467;-44
2022/01/22 14:34:42;;;;;;;11.77;2.20;;;6.90;89.10;;;;;;5035598;28;20098;-42
2022/01/22 14:37:22;;;;;;;11.77;2.67;;;6.90;89.10;;;;;;5035065;28;20033;-43
2022/01/22 14:45:23;;;;;;;10.27;2.63;;;6.90;89.30;;;;;;5034630;28;20056;-43
2022/01/22 14:47:55;;;;;;;7.38;1.85;;;6.80;89.30;;;;;;5035730;28;20099;-43
2022/01/22 14:50:22;;;;;;;9.35;2.78;;;6.80;89.40;;;;;;5035393;28;20029;-42
2022/01/22 14:52:54;;;;;;;5.30;1.27;;;6.90;89.50;;;;;;5034913;28;20335;-43
2022/01/22 14:55:24;;;;;;;5.50;1.30;;;6.80;89.60;;;;;;5035445;28;20316;-43
2022/01/22 14:57:53;;;;;;;8.88;1.60;;;6.90;89.80;;;;;;5033699;28;20045;-42
2022/01/22 15:00:21;;;;;;;7.65;2.15;;;6.90;89.80;;;;;;5033970;28;20034;-47
2022/01/22 15:02:48;;;;;;;10.95;2.13;;;6.80;90.10;;;;;;5033772;28;20096;-44
2022/01/22 15:05:15;;;;;;;8.75;1.67;;;6.80;90.30;;;;;;5031492;28;20699;-44
2022/01/22 15:07:44;;;;;;;7.75;1.95;;;6.80;90.40;;;;;;5034043;28;20728;-42
2022/01/22 15:10:17;;;;;;;10.15;1.98;;;6.80;90.40;;;;;;5035001;28;20045;-44
2022/01/22 15:12:44;;;;;;;9.50;2.03;;;6.90;90.60;;;;;;5034686;28;20139;-43
2022/01/22 15:15:15;;;;;;;8.73;1.60;;;6.80;90.60;;;;;;5023165;28;20026;-42
2022/01/22 15:17:55;;;;;;;12.95;2.15;;;6.80;90.60;;;;;;5028365;28;20095;-43